Athboy, South Dakota
Current Conditions -  °F | °C
As of 8:53 AM on Sunday 23 Nov 2014 (Local Time) from KHEI Reporting Station
Overcast Overcast  
Wind Chill: -8°   Ceiling: 2200
Heat Index:   Visibility: 10mi
Dew Point: -4°   Wind: 33mph
Humidity: 73%   Direction: 300°WNW
Pressure: 29.59"   Gusts: 45mph
Location:  45.2919°N, 102.298°W
Report Text: KHEI 231553Z AUTO 30029G39KT 10SM OVC022 00/M04 A2959 RMK AO2 PK WND 30039/1516 SLP041 T00001044
Loading
Personal Weather Stations






























Interactive Weather Map New forecast layout! Learn more

10-Day Weather Forecast

Advertisements
Track Severe Weather on mobile